createdAt,value
2019-01-14T00:04:17.770Z,8.50
2019-01-14T00:09:31.065Z,8.50
2019-01-14T00:14:31.777Z,8.50
2019-01-14T00:19:38.007Z,8.50
2019-01-14T00:24:44.213Z,8.50
2019-01-14T00:29:50.446Z,8.50
2019-01-14T00:34:56.924Z,8.50
2019-01-14T00:40:03.120Z,8.50
2019-01-14T00:45:09.775Z,8.50
2019-01-14T00:50:16.767Z,8.50
2019-01-14T00:55:22.873Z,8.50
2019-01-14T01:00:29.084Z,8.50
2019-01-14T01:05:35.265Z,8.50
2019-01-14T01:10:41.595Z,8.50
2019-01-14T01:15:47.757Z,8.40
2019-01-14T01:20:53.874Z,8.40
2019-01-14T01:26:00.011Z,8.40
2019-01-14T01:31:06.150Z,8.40
2019-01-14T01:36:14.094Z,8.40
2019-01-14T01:41:20.618Z,8.30
2019-01-14T01:46:26.789Z,8.30
2019-01-14T01:51:32.948Z,8.20
2019-01-14T01:56:39.225Z,8.20
2019-01-14T02:01:45.422Z,8.10
2019-01-14T02:06:51.666Z,8.20
2019-01-14T02:11:57.968Z,8.20
2019-01-14T02:17:04.278Z,8.30
2019-01-14T02:22:11.578Z,8.30
2019-01-14T02:27:18.718Z,8.30
2019-01-14T02:32:24.911Z,8.30
2019-01-14T02:37:31.061Z,8.30
2019-01-14T02:42:37.176Z,8.30
2019-01-14T02:47:43.706Z,8.30
2019-01-14T02:52:49.858Z,8.30
2019-01-14T02:57:55.973Z,8.30
2019-01-14T03:03:02.115Z,8.30
2019-01-14T03:08:08.366Z,8.20
2019-01-14T03:13:15.931Z,8.20
2019-01-14T03:18:22.178Z,8.20
2019-01-14T03:23:28.318Z,8.20
2019-01-14T03:28:34.662Z,8.20
2019-01-14T03:33:41.046Z,8.20
2019-01-14T03:38:47.399Z,8.30
2019-01-14T03:43:53.539Z,8.30
2019-01-14T03:48:59.674Z,8.30
2019-01-14T03:54:06.161Z,8.30
2019-01-14T03:59:12.279Z,8.40
2019-01-14T04:04:18.529Z,8.40
2019-01-14T04:09:24.605Z,8.40
2019-01-14T04:14:30.753Z,8.40
2019-01-14T04:19:37.004Z,8.40
2019-01-14T04:24:43.182Z,8.40
2019-01-14T04:29:49.335Z,8.40
2019-01-14T04:34:55.574Z,8.40
2019-01-14T04:40:04.662Z,8.10
2019-01-14T04:45:11.419Z,8.10
2019-01-14T04:50:20.216Z,8.10
2019-01-14T04:55:26.502Z,7.90
2019-01-14T05:00:32.665Z,7.90
2019-01-14T05:05:38.929Z,7.90
2019-01-14T05:10:47.493Z,7.90
2019-01-14T05:15:53.809Z,8.00
2019-01-14T05:20:59.926Z,8.00
2019-01-14T05:26:06.163Z,7.90
2019-01-14T05:31:12.401Z,7.80
2019-01-14T05:36:18.758Z,7.80
2019-01-14T05:41:25.030Z,7.90
2019-01-14T05:46:31.179Z,7.90
2019-01-14T05:51:37.391Z,7.90
2019-01-14T05:56:43.611Z,7.90
2019-01-14T06:01:49.838Z,7.70
2019-01-14T06:06:56.018Z,7.60
2019-01-14T06:12:02.168Z,7.50
2019-01-14T06:17:08.527Z,7.50
2019-01-14T06:22:14.818Z,7.50
2019-01-14T06:27:21.034Z,7.60
2019-01-14T06:32:27.155Z,7.50
2019-01-14T06:37:33.724Z,7.60
2019-01-14T06:42:39.990Z,7.60
2019-01-14T06:47:46.105Z,7.50
2019-01-14T06:52:52.228Z,7.60
2019-01-14T06:57:58.475Z,7.50
2019-01-14T07:03:04.696Z,7.50
2019-01-14T07:08:10.871Z,7.60
2019-01-14T07:13:17.033Z,7.50
2019-01-14T07:18:23.331Z,7.40
2019-01-14T07:23:29.643Z,7.30
2019-01-14T07:28:35.913Z,7.20
2019-01-14T07:33:42.082Z,7.10
2019-01-14T07:38:50.368Z,7.00
2019-01-14T07:43:56.566Z,7.00
2019-01-14T07:49:02.779Z,7.00
2019-01-14T07:54:08.937Z,7.00
2019-01-14T07:59:15.072Z,7.00
2019-01-14T08:04:21.141Z,6.90
2019-01-14T08:09:27.310Z,6.90
2019-01-14T08:14:33.442Z,7.00
2019-01-14T08:19:39.674Z,7.00
2019-01-14T08:24:45.853Z,7.10
2019-01-14T08:29:51.983Z,7.10
2019-01-14T08:34:58.094Z,7.10
2019-01-14T08:40:05.406Z,7.20
2019-01-14T08:45:11.791Z,7.20
2019-01-14T08:50:19.947Z,7.30
2019-01-14T08:55:26.216Z,7.50
2019-01-14T09:00:32.488Z,7.50
2019-01-14T09:05:38.972Z,7.50
2019-01-14T09:10:45.278Z,7.50
2019-01-14T09:15:51.402Z,7.80
2019-01-14T09:20:58.954Z,8.80
2019-01-14T09:26:05.266Z,10.50
2019-01-14T09:31:11.570Z,10.10
2019-01-14T09:36:17.820Z,10.50
2019-01-14T09:41:24.012Z,9.30
2019-01-14T09:46:30.132Z,8.90
2019-01-14T09:51:38.535Z,8.30
2019-01-14T09:56:44.745Z,8.10
2019-01-14T10:01:51.162Z,8.70
2019-01-14T10:06:57.272Z,10.80
2019-01-14T10:12:03.596Z,10.60
2019-01-14T10:17:09.930Z,11.70
2019-01-14T10:22:16.122Z,11.00
2019-01-14T10:27:22.228Z,8.30
2019-01-14T10:32:28.346Z,7.30
2019-01-14T10:37:35.709Z,7.50
2019-01-14T10:42:41.911Z,7.60
2019-01-14T10:47:48.019Z,8.10
2019-01-14T10:52:54.390Z,8.10
2019-01-14T10:58:00.572Z,7.70
2019-01-14T11:03:07.007Z,8.50
2019-01-14T11:08:13.122Z,8.40
2019-01-14T11:13:19.575Z,8.20
2019-01-14T11:18:25.794Z,8.10
2019-01-14T11:23:32.993Z,8.10
2019-01-14T11:28:39.207Z,8.20
2019-01-14T11:33:45.617Z,7.90
2019-01-14T11:38:52.559Z,7.70
2019-01-14T11:43:59.027Z,7.60
2019-01-14T11:49:05.287Z,7.60
2019-01-14T11:54:11.561Z,7.70
2019-01-14T11:59:19.902Z,7.70
2019-01-14T12:04:26.189Z,7.90
2019-01-14T12:09:32.270Z,7.80
2019-01-14T12:14:38.405Z,7.40
2019-01-14T12:19:44.480Z,6.60
2019-01-14T12:24:50.960Z,6.40
2019-01-14T12:29:57.126Z,6.60
2019-01-14T12:35:03.131Z,6.90
2019-01-14T12:40:10.816Z,7.00
2019-01-14T12:45:17.058Z,6.90
2019-01-14T12:50:23.525Z,6.90
2019-01-14T12:55:29.734Z,6.80
2019-01-14T13:00:36.030Z,7.10
2019-01-14T13:05:42.236Z,7.30
2019-01-14T13:10:48.528Z,7.40
2019-01-14T13:16:00.012Z,7.30
2019-01-14T13:21:07.578Z,7.30
2019-01-14T13:26:13.846Z,7.20
2019-01-14T13:31:20.139Z,7.20
2019-01-14T13:36:26.349Z,7.30
2019-01-14T13:41:32.572Z,7.30
2019-01-14T13:46:38.979Z,7.20
2019-01-14T13:51:46.974Z,7.30
2019-01-14T13:56:52.933Z,7.20
2019-01-14T14:01:59.088Z,7.40
2019-01-14T14:07:05.227Z,7.40
2019-01-14T14:12:11.439Z,7.40
2019-01-14T14:17:17.559Z,7.40
2019-01-14T14:22:23.735Z,7.20
2019-01-14T14:27:29.823Z,7.10
2019-01-14T14:32:35.952Z,7.10
2019-01-14T14:37:42.078Z,7.10
2019-01-14T14:42:48.878Z,7.10
2019-01-14T14:47:55.003Z,7.00
2019-01-14T14:53:01.109Z,7.10
2019-01-14T14:58:07.263Z,7.00
2019-01-14T15:03:13.440Z,6.90
2019-01-14T15:08:19.506Z,7.10
2019-01-14T15:13:25.654Z,7.10
2019-01-14T15:18:31.946Z,6.90
2019-01-14T15:23:38.021Z,6.80
2019-01-14T15:28:44.119Z,6.60
2019-01-14T15:33:50.262Z,6.60
2019-01-14T15:38:56.476Z,6.60
2019-01-14T15:44:02.705Z,6.60
2019-01-14T15:49:09.434Z,6.50
2019-01-14T15:54:15.587Z,6.50
2019-01-14T15:59:21.718Z,6.40
2019-01-14T16:04:27.807Z,6.30
2019-01-14T16:09:34.059Z,6.30
2019-01-14T16:14:40.640Z,6.20
2019-01-14T16:19:48.919Z,6.20
2019-01-14T16:24:55.051Z,6.20
2019-01-14T16:30:01.096Z,6.20
2019-01-14T16:35:07.313Z,6.20
2019-01-14T16:40:17.982Z,6.10
2019-01-14T16:45:24.436Z,6.10
2019-01-14T16:50:30.539Z,6.20
2019-01-14T16:55:40.471Z,6.20
2019-01-14T17:00:46.620Z,6.20
2019-01-14T17:05:54.852Z,6.20
2019-01-14T17:11:00.779Z,6.20
2019-01-14T17:16:07.170Z,6.20
2019-01-14T17:21:13.386Z,6.20
2019-01-14T17:26:19.569Z,6.20
2019-01-14T17:31:25.684Z,6.20
2019-01-14T17:36:31.890Z,6.20
2019-01-14T17:41:39.074Z,6.20
2019-01-14T17:46:45.706Z,6.10
2019-01-14T17:51:51.943Z,6.10
2019-01-14T17:56:58.081Z,6.20
2019-01-14T18:02:04.565Z,6.10
2019-01-14T18:07:10.744Z,6.20
2019-01-14T18:12:16.914Z,6.20
2019-01-14T18:17:23.176Z,6.00
2019-01-14T18:22:29.474Z,6.00
2019-01-14T18:27:35.965Z,6.00
2019-01-14T18:32:42.184Z,6.00
2019-01-14T18:37:48.382Z,5.90
2019-01-14T18:42:54.595Z,5.70
2019-01-14T18:48:01.149Z,5.60
2019-01-14T18:53:07.251Z,5.60
2019-01-14T18:58:13.530Z,5.60
2019-01-14T19:03:19.750Z,5.60
2019-01-14T19:08:26.410Z,5.60
2019-01-14T19:13:32.915Z,5.60
2019-01-14T19:18:39.167Z,5.70
2019-01-14T19:23:45.280Z,5.60
2019-01-14T19:28:52.039Z,5.70
2019-01-14T19:33:58.421Z,5.70
2019-01-14T19:39:08.459Z,5.70
2019-01-14T19:44:16.531Z,5.60
2019-01-14T19:49:22.783Z,5.60
2019-01-14T19:54:29.040Z,5.60
2019-01-14T19:59:35.235Z,5.60
2019-01-14T20:04:41.551Z,5.60
2019-01-14T20:09:47.922Z,5.60
2019-01-14T20:14:54.519Z,5.60
2019-01-14T20:20:00.690Z,5.60
2019-01-14T20:25:08.142Z,5.60
2019-01-14T20:30:22.482Z,5.60
2019-01-14T20:35:28.739Z,5.60
2019-01-14T20:40:35.109Z,5.50
2019-01-14T20:45:41.498Z,5.50
2019-01-14T20:50:47.749Z,5.50
2019-01-14T20:55:54.361Z,5.50
2019-01-14T21:01:02.157Z,5.40
2019-01-14T21:06:08.568Z,5.30
2019-01-14T21:11:14.738Z,5.30
2019-01-14T21:16:21.013Z,5.40
2019-01-14T21:21:27.240Z,5.30
2019-01-14T21:26:33.790Z,5.20
2019-01-14T21:31:40.183Z,5.20
2019-01-14T21:36:46.451Z,5.30
2019-01-14T21:41:53.127Z,5.20
2019-01-14T21:46:59.455Z,5.20
2019-01-14T21:52:05.792Z,5.20
2019-01-14T21:57:11.927Z,5.30
2019-01-14T22:02:18.050Z,5.30
2019-01-14T22:07:24.292Z,5.30
2019-01-14T22:12:30.540Z,5.30
2019-01-14T22:17:38.497Z,5.30
2019-01-14T22:22:44.842Z,5.40
2019-01-14T22:27:51.265Z,5.50
2019-01-14T22:32:57.581Z,5.50
2019-01-14T22:38:03.803Z,5.60
2019-01-14T22:43:09.942Z,5.60
2019-01-14T22:48:16.145Z,5.70
2019-01-14T22:53:22.451Z,5.80
2019-01-14T22:58:28.689Z,5.80
2019-01-14T23:03:35.020Z,5.80
2019-01-14T23:08:42.355Z,5.70
2019-01-14T23:13:48.441Z,5.60
2019-01-14T23:18:54.862Z,5.60
2019-01-14T23:24:01.031Z,5.60
2019-01-14T23:29:07.190Z,5.60
2019-01-14T23:34:13.418Z,5.60
2019-01-14T23:39:19.692Z,5.70
2019-01-14T23:44:25.874Z,5.70
2019-01-14T23:49:32.006Z,5.70
2019-01-14T23:54:38.217Z,5.60
2019-01-14T23:59:44.280Z,5.50
